Map

Track Data

SID SEASON NUMBER BASIN SUBBASIN NAME ISO_TIME NATURE LAT LON WMO_WIND WMO_PRES WMO_AGENCY TRACK_TYPE DIST2LAND LANDFALL IFLAG USA_AGENCY USA_ATCF_ID USA_LAT USA_LON USA_RECORD USA_STATUS USA_WIND USA_PRES USA_SSHS USA_R34_NE USA_R34_SE USA_R34_SW USA_R34_NW USA_R50_NE USA_R50_SE USA_R50_SW USA_R50_NW USA_R64_NE USA_R64_SE USA_R64_SW USA_R64_NW USA_POCI USA_ROCI USA_RMW USA_EYE TOKYO_LAT TOKYO_LON TOKYO_GRADE TOKYO_WIND TOKYO_PRES TOKYO_R50_DIR TOKYO_R50_LONG TOKYO_R50_SHORT TOKYO_R30_DIR TOKYO_R30_LONG TOKYO_R30_SHORT TOKYO_LAND CMA_LAT CMA_LON CMA_CAT CMA_WIND CMA_PRES HKO_LAT HKO_LON HKO_CAT HKO_WIND HKO_PRES NEWDELHI_LAT NEWDELHI_LON NEWDELHI_GRADE NEWDELHI_WIND NEWDELHI_PRES NEWDELHI_CI NEWDELHI_DP NEWDELHI_POCI REUNION_LAT REUNION_LON REUNION_TYPE REUNION_WIND REUNION_PRES REUNION_TNUM REUNION_CI REUNION_RMW REUNION_R34_NE REUNION_R34_SE REUNION_R34_SW REUNION_R34_NW REUNION_R50_NE REUNION_R50_SE REUNION_R50_SW REUNION_R50_NW REUNION_R64_NE REUNION_R64_SE REUNION_R64_SW REUNION_R64_NW BOM_LAT BOM_LON BOM_TYPE BOM_WIND BOM_PRES BOM_TNUM BOM_CI BOM_RMW BOM_R34_NE BOM_R34_SE BOM_R34_SW BOM_R34_NW BOM_R50_NE BOM_R50_SE BOM_R50_SW BOM_R50_NW BOM_R64_NE BOM_R64_SE BOM_R64_SW BOM_R64_NW BOM_ROCI BOM_POCI BOM_EYE BOM_POS_METHOD BOM_PRES_METHOD NADI_LAT NADI_LON NADI_CAT NADI_WIND NADI_PRES WELLINGTON_LAT WELLINGTON_LON WELLINGTON_WIND WELLINGTON_PRES DS824_LAT DS824_LON DS824_STAGE DS824_WIND DS824_PRES TD9636_LAT TD9636_LON TD9636_STAGE TD9636_WIND TD9636_PRES TD9635_LAT TD9635_LON TD9635_WIND TD9635_PRES TD9635_ROCI NEUMANN_LAT NEUMANN_LON NEUMANN_CLASS NEUMANN_WIND NEUMANN_PRES MLC_LAT MLC_LON MLC_CLASS MLC_WIND MLC_PRES USA_GUST BOM_GUST BOM_GUST_PER REUNION_GUST REUNION_GUST_PER USA_SEAHGT USA_SEARAD_NE USA_SEARAD_SE USA_SEARAD_SW USA_SEARAD_NW STORM_SPEED STORM_DIR
1937069S11060 1937 14 SI MM NOT_NAMED 1937-03-10 06:00:00 NR -10.6000 59.8000 reunion main 1086 1086 _____O________ -1 -10.6000 59.8000 99 9.90000 1 271
1937069S11060 1937 14 SI MM NOT_NAMED 1937-03-10 09:00:00 NR -10.5996 59.7576 main 1086 1084 _____P________ -1 -10.5996 59.7576 99 1 270
1937069S11060 1937 14 SI MM NOT_NAMED 1937-03-10 12:00:00 NR -10.6005 59.7062 main 1084 1082 _____P________ -1 -10.6005 59.7062 99 1 268
1937069S11060 1937 14 SI MM NOT_NAMED 1937-03-10 15:00:00 NR -10.6038 59.6366 main 1082 1079 _____P________ -1 -10.6038 59.6366 99 2 266
1937069S11060 1937 14 SI MM NOT_NAMED 1937-03-10 18:00:00 NR -10.6109 59.5399 main 1079 1068 _____P________ -1 -10.6109 59.5399 99 2 265
1937069S11060 1937 14 SI MM NOT_NAMED 1937-03-10 21:00:00 NR -10.6228 59.4070 main 1068 1055 _____P________ -1 -10.6228 59.4070 99 3 253
1937069S11060 1937 14 SI MM NOT_NAMED 1937-03-11 00:00:00 TS -10.6927 59.2630 main 1055 1023 _____P___O____ -1 -10.6409 59.2288 99 -10.9000 59.4000 TC 35 5 255
1937069S11060 1937 14 SI MM NOT_NAMED 1937-03-11 03:00:00 TS -10.7451 58.9324 main 1013 978 _____P___P____ -1 -10.6663 58.9961 99 -10.9027 58.8050 TC 35 7 261
1937069S11060 1937 14 SI MM NOT_NAMED 1937-03-11 06:00:00 TS -10.8000 58.6000 reunion main 978 926 _____O___OO___ -1 -10.7000 58.7000 99 9.90000 -10.9000 58.2000 TC 35 -10.9000 59.4000 2 8 264
1937069S11060 1937 14 SI MM NOT_NAMED 1937-03-11 09:00:00 TS -10.8319 58.1222 main 926 880 _____P___PP___ -1 -10.7429 58.3346 99 -10.8925 57.5850 TC 35 -10.8887 58.7718 2 9 267
1937069S11060 1937 14 SI MM NOT_NAMED 1937-03-11 12:00:00 TS -10.8568 57.6451 main 870 828 _____P___OP___ -1 -10.7951 57.9080 99 -10.9000 57.0000 TC 35 -10.8813 58.1548 2 9 266
1937069S11060 1937 14 SI MM NOT_NAMED 1937-03-11 15:00:00 TS -10.8940 57.1590 main 828 776 _____P___PP___ -1 -10.8565 57.4315 99 -10.9423 56.4850 TC 35 -10.8833 57.5605 2 10 265
1937069S11060 1937 14 SI MM NOT_NAMED 1937-03-11 18:00:00 TS -10.9423 56.6388 main 766 710 _____P___OO___ -1 -10.9269 56.9165 99 -11.0000 56.0000 TC 35 -10.9000 57.0000 2 10 264
1937069S11060 1937 14 SI MM NOT_NAMED 1937-03-11 21:00:00 TS -10.9971 56.1205 main 710 655 _____P___PP___ -1 -11.0063 56.3745 99 -11.0499 55.5075 TC 35 -10.9350 56.4795 2 10 263
1937069S11060 1937 14 SI MM NOT_NAMED 1937-03-12 00:00:00 TS -11.0597 55.6006 main 655 604 _____P___OP___ -1 -11.0949 55.8169 99 -11.1000 55.0000 TC 35 -10.9842 55.9851 2 10 263
1937069S11060 1937 14 SI MM NOT_NAMED 1937-03-12 03:00:00 TS -11.1280 55.0702 main 604 549 _____P___PP___ -1 -11.1927 55.2549 99 -11.1499 54.4575 TC 35 -11.0413 55.4982 2 11 262
1937069S11060 1937 14 SI MM NOT_NAMED 1937-03-12 06:00:00 TS -11.2000 54.5333 reunion main 539 484 _____O___OO___ -1 -11.3000 54.7000 99 9.90000 -11.2000 53.9000 TC 35 -11.1000 55.0000 2 11 263
1937069S11060 1937 14 SI MM NOT_NAMED 1937-03-12 09:00:00 TS -11.2634 53.9986 main 484 435 _____P___PP___ -1 -11.4185 54.1549 99 -11.2423 53.3649 TC 35 -11.1294 54.4762 2 11 263
1937069S11060 1937 14 SI MM NOT_NAMED 1937-03-12 12:00:00 TS -11.3367 53.4469 main 425 372 _____P___OP___ -1 -11.5481 53.6040 99 -11.3000 52.8000 TC 35 -11.1620 53.9369 2 11 262
1937069S11060 1937 14 SI MM NOT_NAMED 1937-03-12 15:00:00 TS -11.4232 52.8644 main 372 310 _____P___PP___ -1 -11.6859 53.0565 99 -11.3700 52.1574 TC 35 -11.2137 53.3792 2 12 260
1937069S11060 1937 14 SI MM NOT_NAMED 1937-03-12 18:00:00 TS -11.5430 52.2740 main 310 243 _____P___OO___ -1 -11.8291 52.5219 99 -11.5000 51.5000 TC 35 -11.3000 52.8000 2 12 256
1937069S11060 1937 14 SI MM NOT_NAMED 1937-03-12 21:00:00 TS -11.7242 51.6568 main 243 179 _____P___PP___ -1 -11.9748 52.0095 99 -11.7501 50.8328 TC 35 -11.4478 52.1282 2 12 252
1937069S11060 1937 14 SI MM NOT_NAMED 1937-03-13 00:00:00 TS -11.9163 51.0916 main 179 132 _____P___OP___ -1 -12.1203 51.5287 99 -12.0000 50.3000 TC 35 -11.6285 51.4459 2 10 251
1937069S11060 1937 14 SI MM NOT_NAMED 1937-03-13 03:00:00 TS -12.0658 50.6482 main 124 93 _____P___PP___ -1 -12.2629 51.0891 99 -12.1148 50.0398 TC 35 -11.8198 50.8156 2 8 250
1937069S11060 1937 14 SI MM NOT_NAMED 1937-03-13 06:00:00 TS -12.2000 50.3000 reunion main 93 58 _____O___OO___ -1 -12.4000 50.7000 99 9.90000 -12.2000 49.9000 TC 35 -12.0000 50.3000 2 7 247
1937069S11060 1937 14 SI MM NOT_NAMED 1937-03-13 09:00:00 TS -12.3325 50.0178 main 58 31 _____P___PP___ -1 -12.5089 50.3916 99 -12.3500 49.6925 TC 35 -12.1385 49.9693 2 6 242
1937069S11060 1937 14 SI MM NOT_NAMED 1937-03-13 12:00:00 TS -12.4589 49.7972 main 31 10 _____P___OP___ -1 -12.6126 50.1344 99 -12.5000 49.5000 TC 35 -12.2640 49.7571 2 4 239
1937069S11060 1937 14 SI MM NOT_NAMED 1937-03-13 15:00:00 TS -12.5656 49.6257 main 10 0 _____P___PP___ -1 -12.7143 49.9184 99 -12.6000 49.3424 TC 35 -12.3825 49.6163 2 4 236
1937069S11060 1937 14 SI MM NOT_NAMED 1937-03-13 18:00:00 TS -12.6724 49.4778 main 0 0 _____P___OO___ -1 -12.8171 49.7334 99 -12.7000 49.2000 TC 35 -12.5000 49.5000 2 4 233
1937069S11060 1937 14 SI MM NOT_NAMED 1937-03-13 21:00:00 TS -12.7906 49.3182 main 0 0 _____P___PP___ -1 -12.9241 49.5692 99 -12.8350 49.0500 TC 35 -12.6127 49.3355 2 4 231
1937069S11060 1937 14 SI MM NOT_NAMED 1937-03-14 00:00:00 TS -12.9219 49.1668 main 0 0 _____P___OP___ -1 -13.0382 49.4157 99 -13.0000 48.9000 TC 35 -12.7274 49.1848 2 4 227
1937069S11060 1937 14 SI MM NOT_NAMED 1937-03-14 03:00:00 TS -13.0695 49.0181 main 0 0 _____P___PP___ -1 -13.1625 49.2627 99 -13.1925 48.7500 TC 35 -12.8534 49.0417 2 4 223
1937069S11060 1937 14 SI MM NOT_NAMED 1937-03-14 06:00:00 TS -13.2333 48.8667 reunion main 0 0 _____O___OO___ -1 -13.3000 49.1000 99 9.90000 -13.4000 48.6000 TC 35 -13.0000 48.9000 2 5 223
1937069S11060 1937 14 SI MM NOT_NAMED 1937-03-14 09:00:00 TS -13.4192 48.6866 main 10 0 _____P___PP___ -1 -13.4635 48.8712 99 -13.6075 48.4425 TC 35 -13.1866 48.7460 2 5 223
1937069S11060 1937 14 SI MM NOT_NAMED 1937-03-14 12:00:00 TS -13.6109 48.5097 main 0 0 _____P___OP___ -1 -13.6402 48.6364 99 -13.8000 48.3000 TC 35 -13.3925 48.5926 2 5 221
1937069S11060 1937 14 SI MM NOT_NAMED 1937-03-14 15:00:00 TS -13.7955 48.3474 main 0 0 _____P___PP___ -1 -13.8269 48.3993 99 -13.9575 48.1999 TC 35 -13.6022 48.4429 2 5 221
1937069S11060 1937 14 SI MM NOT_NAMED 1937-03-14 18:00:00 TS -13.9734 48.1877 main 0 0 _____P___OO___ -1 -14.0203 48.1632 99 -14.1000 48.1000 TC 35 -13.8000 48.3000 2 5 222
1937069S11060 1937 14 SI MM NOT_NAMED 1937-03-14 21:00:00 TS -14.1348 48.0320 main 10 0 _____P___PP___ -1 -14.2175 47.9317 99 -14.2350 47.9724 TC 35 -13.9520 48.1919 2 5 224
1937069S11060 1937 14 SI MM NOT_NAMED 1937-03-15 00:00:00 TS -14.3025 47.8651 main 0 0 _____P___OP___ -1 -14.4153 47.7083 99 -14.4000 47.8000 TC 35 -14.0923 48.0870 2 5 224
1937069S11060 1937 14 SI MM NOT_NAMED 1937-03-15 03:00:00 TS -14.4964 47.6776 main 10 10 _____P___PP___ -1 -14.6105 47.4965 99 -14.6425 47.5725 TC 35 -14.2364 47.9637 2 6 224
1937069S11060 1937 14 SI MM NOT_NAMED 1937-03-15 06:00:00 TS -14.7000 47.4667 reunion main 11 0 _____O___OO___ -1 -14.8000 47.3000 99 9.90000 -14.9000 47.3000 TC 35 -14.4000 47.8000 2 6 228
1937069S11060 1937 14 SI MM NOT_NAMED 1937-03-15 09:00:00 TS -14.9014 47.2204 main 10 10 _____P___PP___ -1 -14.9849 47.1240 99 -15.1076 46.9850 TC 35 -14.6118 47.5522 2 6 230
1937069S11060 1937 14 SI MM NOT_NAMED 1937-03-15 12:00:00 TS -15.1034 46.9759 main 11 0 _____P___OP___ -1 -15.1674 46.9622 99 -15.3000 46.7000 TC 35 -14.8428 47.2654 2 6 227
1937069S11060 1937 14 SI MM NOT_NAMED 1937-03-15 15:00:00 TS -15.3101 46.7729 main 0 0 _____P___PP___ -1 -15.3454 46.8129 99 -15.5074 46.5349 TC 35 -15.0774 46.9709 2 5 223
1937069S11060 1937 14 SI MM NOT_NAMED 1937-03-15 18:00:00 TS -15.5057 46.5916 main 0 0 _____P___OO___ -1 -15.5170 46.6747 99 -15.7000 46.4000 TC 35 -15.3000 46.7000 2 5 223
1937069S11060 1937 14 SI MM NOT_NAMED 1937-03-15 21:00:00 TS -15.6861 46.4074 main 0 0 _____P___PP___ -1 -15.6802 46.5458 99 -15.8725 46.1925 TC 35 -15.5055 46.4839 2 5 225
1937069S11060 1937 14 SI MM NOT_NAMED 1937-03-16 00:00:00 TS -15.8427 46.2407 main 0 0 _____P___OP___ -1 -15.8331 46.4248 99 -16.0000 46.0000 TC 35 -15.6949 46.2974 2 4 226
1937069S11060 1937 14 SI MM NOT_NAMED 1937-03-16 03:00:00 TS -15.9643 46.1107 main 0 0 _____P___PP___ -1 -15.9737 46.3101 99 -16.0575 45.8849 TC 35 -15.8618 46.1371 2 3 226
1937069S11060 1937 14 SI MM NOT_NAMED 1937-03-16 06:00:00 TS -16.0667 46.0000 reunion main 0 0 _____O___OO___ -1 -16.1000 46.2000 99 9.90000 -16.1000 45.8000 TC 35 -16.0000 46.0000 2 3 228
1937069S11060 1937 14 SI MM NOT_NAMED 1937-03-16 09:00:00 TS -16.1574 45.8873 main 0 0 _____P___PP___ -1 -16.1998 46.0838 99 -16.1850 45.7000 TC 35 -16.0874 45.8782 2 3 230
1937069S11060 1937 14 SI MM NOT_NAMED 1937-03-16 12:00:00 TS -16.2446 45.7837 main 0 0 _____P___OP___ -1 -16.2839 45.9738 99 -16.3000 45.6000 TC 35 -16.1499 45.7772 2 3 228
1937069S11060 1937 14 SI MM NOT_NAMED 1937-03-16 15:00:00 TS -16.3347 45.6856 main 0 0 _____P___PP___ -1 -16.3566 45.8692 99 -16.4350 45.5000 TC 35 -16.2124 45.6876 2 3 224
1937069S11060 1937 14 SI MM NOT_NAMED 1937-03-16 18:00:00 TS -16.4408 45.5898 main 0 0 _____P___OO___ -1 -16.4223 45.7693 99 -16.6000 45.4000 TC 35 -16.3000 45.6000 2 3 216
1937069S11060 1937 14 SI MM NOT_NAMED 1937-03-16 21:00:00 TS -16.5837 45.4949 main 0 0 _____P___PP___ -1 -16.4852 45.6732 99 -16.8075 45.3075 TC 35 -16.4584 45.5041 2 3 213
1937069S11060 1937 14 SI MM NOT_NAMED 1937-03-17 00:00:00 TS -16.7307 45.3959 main 0 0 _____P___OP___ -1 -16.5496 45.5801 99 -17.0000 45.2000 TC 35 -16.6425 45.4076 2 3 217
1937069S11060 1937 14 SI MM NOT_NAMED 1937-03-17 03:00:00 TS -16.8550 45.2822 main 0 0 _____P___PP___ -1 -16.6197 45.4893 99 -17.1150 45.0500 TC 35 -16.8303 45.3072 2 3 223
1937069S11060 1937 14 SI MM NOT_NAMED 1937-03-17 06:00:00 TS -16.9667 45.1667 reunion main 0 0 _____O___OO___ -1 -16.7000 45.4000 99 9.90000 -17.2000 44.9000 TC 35 -17.0000 45.2000 2 3 225
1937069S11060 1937 14 SI MM NOT_NAMED 1937-03-17 09:00:00 TS -17.0792 45.0466 main 0 0 _____P___PP___ -1 -16.8045 45.2889 99 -17.3075 44.7850 TC 35 -17.1257 45.0659 2 3 226
1937069S11060 1937 14 SI MM NOT_NAMED 1937-03-17 12:00:00 TS -17.1824 44.9350 main 0 0 _____P___OP___ -1 -16.9173 45.1775 99 -17.4000 44.7000 TC 35 -17.2301 44.9275 2 3 227
1937069S11060 1937 14 SI MM NOT_NAMED 1937-03-17 15:00:00 TS -17.2688 44.8349 main 0 0 _____P___PP___ -1 -17.0370 45.0695 99 -17.4500 44.6350 TC 35 -17.3194 44.8003 2 2 225
1937069S11060 1937 14 SI MM NOT_NAMED 1937-03-17 18:00:00 TS -17.3542 44.7560 main 0 0 _____P___OO___ -1 -17.1626 44.9681 99 -17.5000 44.6000 TC 35 -17.4000 44.7000 2 2 214
1937069S11060 1937 14 SI MM NOT_NAMED 1937-03-17 21:00:00 TS -17.4506 44.7025 main 0 0 _____P___PP___ -1 -17.2929 44.8769 99 -17.5850 44.5925 TC 35 -17.4740 44.6381 2 2 201
1937069S11060 1937 14 SI MM NOT_NAMED 1937-03-18 00:00:00 TS -17.5564 44.6682 main 0 0 _____P___OP___ -1 -17.4266 44.7995 99 -17.7000 44.6000 TC 35 -17.5424 44.6049 2 2 193
1937069S11060 1937 14 SI MM NOT_NAMED 1937-03-18 03:00:00 TS -17.6758 44.6421 main 0 0 _____P___PP___ -1 -17.5627 44.7394 99 -17.8500 44.5925 TC 35 -17.6147 44.5943 2 2 190
1937069S11060 1937 14 SI MM NOT_NAMED 1937-03-18 06:00:00 TS -17.8000 44.6333 reunion main 0 0 _____O___OO___ -1 -17.7000 44.7000 99 9.90000 -18.0000 44.6000 TC 35 -17.7000 44.6000 2 2 174
1937069S11060 1937 14 SI MM NOT_NAMED 1937-03-18 09:00:00 TS -17.9215 44.6434 main 0 0 _____P___PP___ -1 -17.8423 44.6812 99 -18.1075 44.6425 TC 35 -17.8147 44.6065 2 2 170
1937069S11060 1937 14 SI MM NOT_NAMED 1937-03-18 12:00:00 TS -18.0435 44.6700 main 0 0 _____P___OP___ -1 -17.9880 44.6825 99 -18.2000 44.7000 TC 35 -17.9425 44.6275 2 3 168
1937069S11060 1937 14 SI MM NOT_NAMED 1937-03-18 15:00:00 TS -18.1695 44.7038 main 0 0 _____P___PP___ -1 -18.1346 44.7017 99 -18.3000 44.7500 TC 35 -18.0741 44.6597 2 3 164
1937069S11060 1937 14 SI MM NOT_NAMED 1937-03-18 18:00:00 TS -18.2933 44.7457 main 0 0 _____P___OO___ -1 -18.2798 44.7371 99 -18.4000 44.8000 TC 35 -18.2000 44.7000 2 3 162
1937069S11060 1937 14 SI MM NOT_NAMED 1937-03-18 21:00:00 TS -18.4043 44.7918 main 0 0 _____P___PP___ -1 -18.4213 44.7865 99 -18.4925 44.8500 TC 35 -18.2991 44.7388 2 2 156
1937069S11060 1937 14 SI MM NOT_NAMED 1937-03-19 00:00:00 TS -18.5164 44.8444 main 0 0 _____P___OP___ -1 -18.5567 44.8482 99 -18.6000 44.9000 TC 35 -18.3925 44.7851 2 3 156
1937069S11060 1937 14 SI MM NOT_NAMED 1937-03-19 03:00:00 TS -18.6386 44.9004 main 0 0 _____P___PP___ -1 -18.6838 44.9200 99 -18.7425 44.9425 TC 35 -18.4897 44.8388 2 3 155
1937069S11060 1937 14 SI MM NOT_NAMED 1937-03-19 06:00:00 TS -18.7667 44.9667 reunion main 0 0 _____O___OO___ -1 -18.8000 45.0000 99 9.90000 -18.9000 45.0000 TC 35 -18.6000 44.9000 2 3 151
1937069S11060 1937 14 SI MM NOT_NAMED 1937-03-19 09:00:00 TS -18.9063 45.0553 main 0 0 _____P___PP___ -1 -18.9021 45.0786 99 -19.0650 45.1074 TC 35 -18.7519 44.9799 2 3 148
1937069S11060 1937 14 SI MM NOT_NAMED 1937-03-19 12:00:00 TS -19.0364 45.1443 main 0 0 _____P___OP___ -1 -18.9942 45.1681 99 -19.2000 45.2000 TC 35 -18.9150 45.0648 2 3 149
1937069S11060 1937 14 SI MM NOT_NAMED 1937-03-19 15:00:00 TS -19.1376 45.2078 main 0 0 _____P___PP___ -1 -19.0773 45.2660 99 -19.2650 45.2150 TC 35 -19.0707 45.1424 2 2 150
1937069S11060 1937 14 SI MM NOT_NAMED 1937-03-19 18:00:00 TS -19.2175 45.2566 main 0 0 _____P___OO___ -1 -19.1526 45.3699 99 -19.3000 45.2000 TC 35 -19.2000 45.2000 2 2 153
1937069S11060 1937 14 SI MM NOT_NAMED 1937-03-19 21:00:00 TS -19.2833 45.2790 main 0 0 _____P___PP___ -1 -19.2214 45.4777 99 -19.3500 45.1700 TC 35 -19.2787 45.1892 2 1 157
1937069S11060 1937 14 SI MM NOT_NAMED 1937-03-20 00:00:00 TS -19.3382 45.3165 main 0 0 _____P___OP___ -1 -19.2848 45.5868 99 -19.4000 45.2000 TC 35 -19.3298 45.1627 2 2 131
1937069S11060 1937 14 SI MM NOT_NAMED 1937-03-20 03:00:00 TS -19.3867 45.4066 main 0 0 _____P___PP___ -1 -19.3439 45.6951 99 -19.4500 45.3700 TC 35 -19.3661 45.1548 2 2 115
1937069S11060 1937 14 SI MM NOT_NAMED 1937-03-20 06:00:00 TS -19.4333 45.5333 reunion main 0 0 _____O___OO___ -1 -19.4000 45.8000 99 9.90000 -19.5000 45.6000 TC 35 -19.4000 45.2000 2 3 111
1937069S11060 1937 14 SI MM NOT_NAMED 1937-03-20 09:00:00 TS -19.4851 45.6778 main 0 0 _____P___PP___ -1 -19.4552 45.8714 99 -19.5500 45.8075 TC 35 -19.4502 45.3546 2 3 110
1937069S11060 1937 14 SI MM NOT_NAMED 1937-03-20 12:00:00 TS -19.5353 45.8335 main 0 0 _____P___OP___ -1 -19.5057 45.9380 99 -19.6000 46.0000 TC 35 -19.5003 45.5624 2 3 109
1937069S11060 1937 14 SI MM NOT_NAMED 1937-03-20 15:00:00 TS -19.5845 45.9862 main 0 0 _____P___PP___ -1 -19.5532 46.0046 99 -19.6500 46.1650 TC 35 -19.5502 45.7890 2 3 110
1937069S11060 1937 14 SI MM NOT_NAMED 1937-03-20 18:00:00 TS -19.6330 46.1253 main 0 0 _____P___OO___ -1 -19.5991 46.0758 99 -19.7000 46.3000 TC 35 -19.6000 46.0000 2 2 112
1937069S11060 1937 14 SI MM NOT_NAMED 1937-03-20 21:00:00 TS -19.6765 46.2278 main 0 0 _____P___PP___ -1 -19.6452 46.1562 99 -19.7424 46.3926 TC 35 -19.6417 46.1345 2 2 115
1937069S11060 1937 14 SI MM NOT_NAMED 1937-03-21 00:00:00 TS -19.7259 46.3336 main 0 0 _____P___OP___ -1 -19.6930 46.2506 99 -19.8000 46.5000 TC 35 -19.6847 46.2502 2 3 116
1937069S11060 1937 14 SI MM NOT_NAMED 1937-03-21 03:00:00 TS -19.7907 46.4715 main 0 0 _____P___PP___ -1 -19.7441 46.3636 99 -19.8925 46.6850 TC 35 -19.7354 46.3658 2 3 116
1937069S11060 1937 14 SI MM NOT_NAMED 1937-03-21 06:00:00 TS -19.8667 46.6333 reunion main 0 0 _____O___OO___ -1 -19.8000 46.5000 99 9.90000 -20.0000 46.9000 TC 35 -19.8000 46.5000 2 4 117
1937069S11060 1937 14 SI MM NOT_NAMED 1937-03-21 09:00:00 TS -19.9525 46.8128 main 0 0 _____P___PP___ -1 -19.8679 46.6756 99 -20.1000 47.0925 TC 35 -19.8897 46.6703 2 4 117
1937069S11060 1937 14 SI MM NOT_NAMED 1937-03-21 12:00:00 TS -20.0442 47.0124 main 0 0 _____P___OP___ -1 -19.9402 46.8747 99 -20.2000 47.3000 TC 35 -19.9924 46.8624 2 4 115
1937069S11060 1937 14 SI MM NOT_NAMED 1937-03-21 15:00:00 TS -20.1407 47.2362 main 0 0 _____P___PP___ -1 -20.0156 47.0926 99 -20.3075 47.5425 TC 35 -20.0990 47.0734 2 4 113
1937069S11060 1937 14 SI MM NOT_NAMED 1937-03-21 18:00:00 TS -20.2157 47.4453 main 0 0 _____P___OO___ -1 -20.0931 47.3246 99 -20.4000 47.8000 TC 35 -20.2000 47.3000 2 4 109
1937069S11060 1937 14 SI MM NOT_NAMED 1937-03-21 21:00:00 TS -20.2759 47.6525 main 0 0 _____P___PP___ -1 -20.1715 47.5661 99 -20.4601 48.0525 TC 35 -20.2883 47.5390 2 4 105
1937069S11060 1937 14 SI MM NOT_NAMED 1937-03-22 00:00:00 TS -20.3242 47.8639 main 0 0 _____P___OP___ -1 -20.2495 47.8123 99 -20.5000 48.3000 TC 35 -20.3653 47.7874 2 4 103
1937069S11060 1937 14 SI MM NOT_NAMED 1937-03-22 03:00:00 NR -20.3622 48.0530 main 0 0 _____P____P___ -1 -20.3260 48.0585 99 TC -20.4347 48.0421 2 4 103
1937069S11060 1937 14 SI MM NOT_NAMED 1937-03-22 06:00:00 NR -20.4200 48.3000 reunion main 0 0 _____O____O___ -1 -20.4000 48.3000 99 9.90000 -20.5000 48.3000 2 5 104
1937069S11060 1937 14 SI MM NOT_NAMED 1937-03-22 09:00:00 NR -20.4706 48.5330 main 0 0 _____P________ -1 -20.4706 48.5330 99 2 4 105
1937069S11060 1937 14 SI MM NOT_NAMED 1937-03-22 12:00:00 NR -20.5380 48.7578 main 23 23 _____P________ -1 -20.5380 48.7578 99 2 4 108
1937069S11060 1937 14 SI MM NOT_NAMED 1937-03-22 15:00:00 NR -20.6027 48.9755 main 47 47 _____P________ -1 -20.6027 48.9755 99 2 4 108
1937069S11060 1937 14 SI MM NOT_NAMED 1937-03-22 18:00:00 NR -20.6651 49.1874 main 70 70 _____P________ -1 -20.6651 49.1874 99 4 107
1937069S11060 1937 14 SI MM NOT_NAMED 1937-03-22 21:00:00 NR -20.7256 49.3945 main 89 89 _____P________ -1 -20.7256 49.3945 99 4 107
1937069S11060 1937 14 SI MM NOT_NAMED 1937-03-23 00:00:00 NR -20.7846 49.5982 main 113 113 _____P________ -1 -20.7846 49.5982 99 4 107
1937069S11060 1937 14 SI MM NOT_NAMED 1937-03-23 03:00:00 NR -20.8426 49.7996 main 132 132 _____P________ -1 -20.8426 49.7996 99 4 107
1937069S11060 1937 14 SI MM NOT_NAMED 1937-03-23 06:00:00 NR -20.9000 50.0000 reunion main 156 _____O________ -1 -20.9000 50.0000 99 9.90000 4 107

About IBTrACS Database

This database is a web-friendly format of International Best Track Archive for Climate Stewardship (IBTrACS), a global best track data archive curated by NOAA dating back to 1842.

Updated: 2021-12-01